createdAt,value
2017-12-26T00:00:39.674Z,19.71
2017-12-26T00:01:48.612Z,19.8
2017-12-26T00:02:57.558Z,19.73
2017-12-26T00:04:07.290Z,19.78
2017-12-26T00:05:16.760Z,19.76
2017-12-26T00:06:25.973Z,19.73
2017-12-26T00:07:34.914Z,19.73
2017-12-26T00:08:44.137Z,19.73
2017-12-26T00:09:53.788Z,19.71
2017-12-26T00:11:02.993Z,19.71
2017-12-26T00:12:11.678Z,19.73
2017-12-26T00:13:20.884Z,19.65
2017-12-26T00:14:29.828Z,19.68
2017-12-26T00:15:39.374Z,19.69
2017-12-26T00:16:48.325Z,19.63
2017-12-26T00:17:57.305Z,19.74
2017-12-26T00:19:06.528Z,19.65
2017-12-26T00:20:15.746Z,19.65
2017-12-26T00:21:24.706Z,19.62
2017-12-26T00:22:34.452Z,19.62
2017-12-26T00:23:43.453Z,19.69
2017-12-26T00:24:52.688Z,19.65
2017-12-26T00:26:01.985Z,19.76
2017-12-26T00:27:11.028Z,19.68
2017-12-26T00:28:19.988Z,19.66
2017-12-26T00:29:28.944Z,19.68
2017-12-26T00:30:37.915Z,19.69
2017-12-26T00:31:46.786Z,19.65
2017-12-26T00:32:56.010Z,19.63
2017-12-26T00:34:05.271Z,19.63
2017-12-26T00:35:14.500Z,19.63
2017-12-26T00:36:23.455Z,19.71
2017-12-26T00:37:32.402Z,19.63
2017-12-26T00:38:41.358Z,19.61
2017-12-26T00:39:50.315Z,19.68
2017-12-26T00:40:59.530Z,19.69
2017-12-26T00:42:08.215Z,19.69
2017-12-26T00:43:17.432Z,19.66
2017-12-26T00:44:26.394Z,19.71
2017-12-26T00:45:36.143Z,19.69
2017-12-26T00:46:45.108Z,19.66
2017-12-26T00:47:53.794Z,19.71
2017-12-26T00:49:02.481Z,19.69
2017-12-26T00:50:11.178Z,19.63
2017-12-26T00:51:20.398Z,19.58
2017-12-26T00:52:29.337Z,19.69
2017-12-26T00:53:38.551Z,19.63
2017-12-26T00:54:48.287Z,19.71
2017-12-26T00:55:57.240Z,19.62
2017-12-26T00:57:06.435Z,19.66
2017-12-26T00:58:15.647Z,19.71
2017-12-26T00:59:24.351Z,19.63
2017-12-26T01:00:33.555Z,19.63
2017-12-26T01:01:42.762Z,19.68
2017-12-26T01:02:51.963Z,19.58
2017-12-26T01:04:00.652Z,19.61
2017-12-26T01:05:09.861Z,19.66
2017-12-26T01:06:19.338Z,19.66
2017-12-26T01:07:28.041Z,19.66
2017-12-26T01:08:37.250Z,19.59
2017-12-26T01:09:45.958Z,19.58
2017-12-26T01:10:54.636Z,19.73
2017-12-26T01:12:03.577Z,19.56
2017-12-26T01:13:12.790Z,19.59
2017-12-26T01:14:21.735Z,19.65
2017-12-26T01:15:30.434Z,19.68
2017-12-26T01:16:39.136Z,19.54
2017-12-26T01:17:48.358Z,19.61
2017-12-26T01:18:57.307Z,19.62
2017-12-26T01:20:06.539Z,19.65
2017-12-26T01:21:15.240Z,19.59
2017-12-26T01:22:24.202Z,19.62
2017-12-26T01:23:33.151Z,19.61
2017-12-26T01:24:42.098Z,19.62
2017-12-26T01:25:51.826Z,19.56
2017-12-26T01:27:00.792Z,19.62
2017-12-26T01:28:09.733Z,19.62
2017-12-26T01:29:18.701Z,19.54
2017-12-26T01:30:27.654Z,19.58
2017-12-26T01:31:36.873Z,19.61
2017-12-26T01:32:46.608Z,19.59
2017-12-26T01:33:56.080Z,19.58
2017-12-26T01:35:05.552Z,19.62
2017-12-26T01:36:14.502Z,19.61
2017-12-26T01:37:23.972Z,19.59
2017-12-26T01:38:33.185Z,19.61
2017-12-26T01:39:42.418Z,19.58
2017-12-26T01:40:51.891Z,19.56
2017-12-26T01:42:01.086Z,19.59
2017-12-26T01:43:10.035Z,19.56
2017-12-26T01:44:18.974Z,19.62
2017-12-26T01:45:27.923Z,19.54
2017-12-26T01:46:36.874Z,19.56
2017-12-26T01:47:45.818Z,19.59
2017-12-26T01:48:54.500Z,19.61
2017-12-26T01:50:03.974Z,19.56
2017-12-26T01:51:13.443Z,19.59
2017-12-26T01:52:22.380Z,19.59
2017-12-26T01:53:31.584Z,19.56
2017-12-26T01:54:41.064Z,19.59
2017-12-26T01:55:50.558Z,19.63
2017-12-26T01:56:59.237Z,19.61
2017-12-26T01:58:07.910Z,19.51
2017-12-26T01:59:16.844Z,19.56
2017-12-26T02:00:25.810Z,19.62
2017-12-26T02:01:34.760Z,19.56
2017-12-26T02:02:43.957Z,19.59
2017-12-26T02:03:53.172Z,19.58
2017-12-26T02:05:02.121Z,19.56
2017-12-26T02:06:11.332Z,19.59
2017-12-26T02:07:20.547Z,19.61
2017-12-26T02:08:30.026Z,19.61
2017-12-26T02:09:39.237Z,19.58
2017-12-26T02:10:48.198Z,19.59
2017-12-26T02:11:56.882Z,19.58
2017-12-26T02:13:06.095Z,19.55
2017-12-26T02:14:15.573Z,19.59
2017-12-26T02:15:24.779Z,19.59
2017-12-26T02:16:33.983Z,19.61
2017-12-26T02:17:42.933Z,19.54
2017-12-26T02:18:51.878Z,19.63
2017-12-26T02:20:01.092Z,19.56
2017-12-26T02:21:10.566Z,19.55
2017-12-26T02:22:19.792Z,19.58
2017-12-26T02:23:29.266Z,19.56
2017-12-26T02:24:38.211Z,19.55
2017-12-26T02:25:47.180Z,19.61
2017-12-26T02:26:56.398Z,19.62
2017-12-26T02:28:05.880Z,19.58
2017-12-26T02:29:15.093Z,19.58
2017-12-26T02:30:24.306Z,19.58
2017-12-26T02:31:33.526Z,19.56
2017-12-26T02:32:42.474Z,19.61
2017-12-26T02:33:51.426Z,19.59
2017-12-26T02:35:00.397Z,19.59
2017-12-26T02:36:09.602Z,19.62
2017-12-26T02:37:18.572Z,19.58
2017-12-26T02:38:27.866Z,19.58
2017-12-26T02:39:37.623Z,19.58
2017-12-26T02:40:46.305Z,19.56
2017-12-26T02:41:55.622Z,19.63
2017-12-26T02:43:04.847Z,19.55
2017-12-26T02:44:14.061Z,19.61
2017-12-26T02:45:23.278Z,19.58
2017-12-26T02:46:32.491Z,19.59
2017-12-26T02:47:41.438Z,19.58
2017-12-26T02:48:50.459Z,19.63
2017-12-26T02:49:59.139Z,19.55
2017-12-26T02:51:08.355Z,19.59
2017-12-26T02:52:17.317Z,19.58
2017-12-26T02:53:26.286Z,19.61
2017-12-26T02:54:35.763Z,19.56
2017-12-26T02:55:44.446Z,19.58
2017-12-26T02:56:53.667Z,19.55
2017-12-26T02:58:02.648Z,19.58
2017-12-26T02:59:11.617Z,19.59
2017-12-26T03:00:21.371Z,19.58
2017-12-26T03:01:30.322Z,19.61
2017-12-26T03:02:39.539Z,19.54
2017-12-26T03:03:48.222Z,19.51
2017-12-26T03:04:56.920Z,19.55
2017-12-26T03:06:05.877Z,19.61
2017-12-26T03:07:15.478Z,19.54
2017-12-26T03:08:24.952Z,19.58
2017-12-26T03:09:33.913Z,19.59
2017-12-26T03:10:42.860Z,19.54
2017-12-26T03:11:52.355Z,19.56
2017-12-26T03:13:01.862Z,19.54
2017-12-26T03:14:11.360Z,19.61
2017-12-26T03:15:20.592Z,19.58
2017-12-26T03:16:30.087Z,19.58
2017-12-26T03:17:39.477Z,19.51
2017-12-26T03:18:48.437Z,19.51
2017-12-26T03:19:57.384Z,19.56
2017-12-26T03:21:06.346Z,19.61
2017-12-26T03:22:15.286Z,19.58
2017-12-26T03:23:24.501Z,19.58
2017-12-26T03:24:33.467Z,19.56
2017-12-26T03:25:42.418Z,19.59
2017-12-26T03:26:51.126Z,19.56
2017-12-26T03:28:00.091Z,19.56
2017-12-26T03:29:08.794Z,19.61
2017-12-26T03:30:18.019Z,19.59
2017-12-26T03:31:27.246Z,19.58
2017-12-26T03:32:36.455Z,19.59
2017-12-26T03:33:45.138Z,19.61
2017-12-26T03:34:54.377Z,19.55
2017-12-26T03:36:03.583Z,19.59
2017-12-26T03:37:12.806Z,19.55
2017-12-26T03:38:21.507Z,19.59
2017-12-26T03:39:30.456Z,19.56
2017-12-26T03:40:39.945Z,19.61
2017-12-26T03:41:49.445Z,19.55
2017-12-26T03:42:58.145Z,19.54
2017-12-26T03:44:07.353Z,19.56
2017-12-26T03:45:16.824Z,19.58
2017-12-26T03:46:26.035Z,19.55
2017-12-26T03:47:34.988Z,19.58
2017-12-26T03:48:43.943Z,19.59
2017-12-26T03:49:53.431Z,19.59
2017-12-26T03:51:02.400Z,19.61
2017-12-26T03:52:11.875Z,19.58
2017-12-26T03:53:20.833Z,19.58
2017-12-26T03:54:29.799Z,19.61
2017-12-26T03:55:39.002Z,19.59
2017-12-26T03:56:48.481Z,19.61
2017-12-26T03:57:57.436Z,19.61
2017-12-26T03:59:06.401Z,19.51
2017-12-26T04:00:15.106Z,19.61
2017-12-26T04:01:24.325Z,19.54
2017-12-26T04:02:33.287Z,19.56
2017-12-26T04:03:42.752Z,19.58
2017-12-26T04:04:51.706Z,19.56
2017-12-26T04:06:00.939Z,19.56
2017-12-26T04:07:10.165Z,19.58
2017-12-26T04:08:19.386Z,19.55
2017-12-26T04:09:28.086Z,19.59
2017-12-26T04:10:37.040Z,19.62
2017-12-26T04:11:46.326Z,19.63
2017-12-26T04:12:55.281Z,19.58
2017-12-26T04:14:03.991Z,19.55
2017-12-26T04:15:12.694Z,19.61
2017-12-26T04:16:22.180Z,19.58
2017-12-26T04:17:31.149Z,19.62
2017-12-26T04:18:40.102Z,19.58
2017-12-26T04:19:49.849Z,19.56
2017-12-26T04:20:59.329Z,19.62
2017-12-26T04:22:08.536Z,19.56
2017-12-26T04:23:18.274Z,19.58
2017-12-26T04:24:27.233Z,19.55
2017-12-26T04:25:36.469Z,19.58
2017-12-26T04:26:45.428Z,19.55
2017-12-26T04:27:55.161Z,19.55
2017-12-26T04:29:04.383Z,19.54
2017-12-26T04:30:13.341Z,19.59
2017-12-26T04:31:23.102Z,19.58
2017-12-26T04:32:32.338Z,19.55
2017-12-26T04:33:41.552Z,19.59
2017-12-26T04:34:51.046Z,19.56
2017-12-26T04:36:00.007Z,19.54
2017-12-26T04:37:09.478Z,19.51
2017-12-26T04:38:18.466Z,19.61
2017-12-26T04:39:27.417Z,19.58
2017-12-26T04:40:36.632Z,19.59
2017-12-26T04:41:45.856Z,19.59
2017-12-26T04:42:55.063Z,19.58
2017-12-26T04:44:04.010Z,19.55
2017-12-26T04:45:13.233Z,19.65
2017-12-26T04:46:21.923Z,19.51
2017-12-26T04:47:31.130Z,19.59
2017-12-26T04:48:40.352Z,19.58
2017-12-26T04:49:49.050Z,19.55
2017-12-26T04:50:57.992Z,19.55
2017-12-26T04:52:07.208Z,19.61
2017-12-26T04:53:16.699Z,19.58
2017-12-26T04:54:26.177Z,19.59
2017-12-26T04:55:35.122Z,19.59
2017-12-26T04:56:43.804Z,19.59
2017-12-26T04:57:53.333Z,19.55
2017-12-26T04:59:02.830Z,19.55
2017-12-26T05:00:12.063Z,19.56
2017-12-26T05:01:21.281Z,19.56
2017-12-26T05:02:29.989Z,19.59
2017-12-26T05:03:39.183Z,19.58
2017-12-26T05:04:48.658Z,19.56
2017-12-26T05:05:57.604Z,19.58
2017-12-26T05:07:06.556Z,19.58
2017-12-26T05:08:15.802Z,19.63
2017-12-26T05:09:24.491Z,19.58
2017-12-26T05:10:33.443Z,19.59
2017-12-26T05:11:42.391Z,19.58
2017-12-26T05:12:51.325Z,19.63
2017-12-26T05:14:00.557Z,19.58
2017-12-26T05:15:09.754Z,19.58
2017-12-26T05:16:18.983Z,19.59
2017-12-26T05:17:28.481Z,19.62
2017-12-26T05:18:37.439Z,19.59
2017-12-26T05:19:46.649Z,19.59
2017-12-26T05:20:55.962Z,19.55
2017-12-26T05:22:05.162Z,19.56
2017-12-26T05:23:14.395Z,19.58
2017-12-26T05:24:23.618Z,19.58
2017-12-26T05:25:32.853Z,19.56
2017-12-26T05:26:42.333Z,19.65
2017-12-26T05:27:51.279Z,19.59
2017-12-26T05:28:59.988Z,19.59
2017-12-26T05:30:09.211Z,19.54
2017-12-26T05:31:18.459Z,19.63
2017-12-26T05:32:27.405Z,19.61
2017-12-26T05:33:36.353Z,19.56
2017-12-26T05:34:45.563Z,19.59
2017-12-26T05:35:54.263Z,19.62
2017-12-26T05:37:03.285Z,19.59
2017-12-26T05:38:12.254Z,19.62
2017-12-26T05:39:21.728Z,19.61
2017-12-26T05:40:30.425Z,19.55
2017-12-26T05:41:39.379Z,19.63
2017-12-26T05:42:48.609Z,19.55
2017-12-26T05:43:57.311Z,19.56
2017-12-26T05:45:06.522Z,19.68
2017-12-26T05:46:15.845Z,19.69
2017-12-26T05:47:25.083Z,19.71
2017-12-26T05:48:34.621Z,19.62
2017-12-26T05:49:44.091Z,19.65
2017-12-26T05:50:52.829Z,19.69
2017-12-26T05:52:02.303Z,19.69
2017-12-26T05:53:11.004Z,19.61
2017-12-26T05:54:20.010Z,19.68
2017-12-26T05:55:28.968Z,19.68
2017-12-26T05:56:37.927Z,19.66
2017-12-26T05:57:46.880Z,19.66
2017-12-26T05:58:55.581Z,19.56
2017-12-26T06:00:04.796Z,19.71
2017-12-26T06:01:13.744Z,19.59
2017-12-26T06:02:22.431Z,19.61
2017-12-26T06:03:31.640Z,19.71
2017-12-26T06:04:40.601Z,19.68
2017-12-26T06:05:49.290Z,19.68
2017-12-26T06:06:57.998Z,19.59
2017-12-26T06:08:07.484Z,19.68
2017-12-26T06:09:16.707Z,19.74
2017-12-26T06:10:25.922Z,19.68
2017-12-26T06:11:34.876Z,19.63
2017-12-26T06:12:44.343Z,19.63
2017-12-26T06:13:53.039Z,19.59
2017-12-26T06:15:01.989Z,19.63
2017-12-26T06:16:10.673Z,19.59
2017-12-26T06:17:20.407Z,19.63
2017-12-26T06:18:29.621Z,19.61
2017-12-26T06:19:38.381Z,19.73
2017-12-26T06:20:47.061Z,19.59
2017-12-26T06:21:56.266Z,19.69
2017-12-26T06:23:05.230Z,19.63
2017-12-26T06:24:14.438Z,19.69
2017-12-26T06:25:23.904Z,19.69
2017-12-26T06:26:33.119Z,19.65
2017-12-26T06:27:41.875Z,19.71
2017-12-26T06:28:51.094Z,19.66
2017-12-26T06:30:00.049Z,19.73
2017-12-26T06:31:09.798Z,19.66
2017-12-26T06:32:18.484Z,19.63
2017-12-26T06:33:27.698Z,19.71
2017-12-26T06:34:36.647Z,19.68
2017-12-26T06:35:45.353Z,19.65
2017-12-26T06:36:54.821Z,19.65
2017-12-26T06:38:03.770Z,19.61
2017-12-26T06:39:13.274Z,19.65
2017-12-26T06:40:22.214Z,19.66
2017-12-26T06:41:30.926Z,19.74
2017-12-26T06:42:40.420Z,19.63
2017-12-26T06:43:49.650Z,19.63
2017-12-26T06:44:58.625Z,19.62
2017-12-26T06:46:08.100Z,19.73
2017-12-26T06:47:17.056Z,19.71
2017-12-26T06:48:26.019Z,19.69
2017-12-26T06:49:34.697Z,19.69
2017-12-26T06:50:43.923Z,19.74
2017-12-26T06:51:53.162Z,19.65
2017-12-26T06:53:02.629Z,19.73
2017-12-26T06:54:11.324Z,19.66
2017-12-26T06:55:20.286Z,19.73
2017-12-26T06:56:29.495Z,19.69
2017-12-26T06:57:38.711Z,19.69
2017-12-26T06:58:48.182Z,19.74
2017-12-26T06:59:57.416Z,19.71
2017-12-26T07:01:06.898Z,19.68
2017-12-26T07:02:15.869Z,19.66
2017-12-26T07:03:25.344Z,19.71
2017-12-26T07:04:34.576Z,19.73
2017-12-26T07:05:43.528Z,19.8
2017-12-26T07:06:52.488Z,19.77
2017-12-26T07:08:01.201Z,19.66
2017-12-26T07:09:10.439Z,19.69
2017-12-26T07:10:19.397Z,19.71
2017-12-26T07:11:28.353Z,19.71
2017-12-26T07:12:37.566Z,19.74
2017-12-26T07:13:46.773Z,19.74
2017-12-26T07:14:55.463Z,19.73
2017-12-26T07:16:04.676Z,19.71
2017-12-26T07:17:13.634Z,19.77
2017-12-26T07:18:22.601Z,19.71
2017-12-26T07:19:31.560Z,19.74
2017-12-26T07:20:40.279Z,19.78
2017-12-26T07:21:49.234Z,19.69
2017-12-26T07:22:58.735Z,19.81
2017-12-26T07:24:07.703Z,19.73
2017-12-26T07:25:16.671Z,19.73
2017-12-26T07:26:26.149Z,19.73
2017-12-26T07:27:34.830Z,19.76
2017-12-26T07:28:44.318Z,19.76
2017-12-26T07:29:53.656Z,19.74
2017-12-26T07:31:02.342Z,19.77
2017-12-26T07:32:11.833Z,19.69
2017-12-26T07:33:20.875Z,19.73
2017-12-26T07:34:30.361Z,19.73
2017-12-26T07:35:39.055Z,19.74
2017-12-26T07:36:47.744Z,19.77
2017-12-26T07:37:56.973Z,19.77
2017-12-26T07:39:05.664Z,19.76
2017-12-26T07:40:15.411Z,19.74
2017-12-26T07:41:24.102Z,19.73
2017-12-26T07:42:33.336Z,19.74
2017-12-26T07:43:42.826Z,19.76
2017-12-26T07:44:52.030Z,19.8
2017-12-26T07:46:01.248Z,19.74
2017-12-26T07:47:10.217Z,19.73
2017-12-26T07:48:19.184Z,19.74
2017-12-26T07:49:28.436Z,19.73
2017-12-26T07:50:37.407Z,19.74
2017-12-26T07:51:46.370Z,19.71
2017-12-26T07:52:55.340Z,19.73
2017-12-26T07:54:04.301Z,19.73
2017-12-26T07:55:13.550Z,19.76
2017-12-26T07:56:22.501Z,19.78
2017-12-26T07:57:31.712Z,19.8
2017-12-26T07:58:41.189Z,19.77
2017-12-26T07:59:49.881Z,19.86
2017-12-26T08:00:58.622Z,19.78
2017-12-26T08:02:08.091Z,19.74
2017-12-26T08:03:17.323Z,19.81
2017-12-26T08:04:26.020Z,19.84
2017-12-26T08:05:35.235Z,19.74
2017-12-26T08:06:44.436Z,19.81
2017-12-26T08:07:53.401Z,19.78
2017-12-26T08:09:02.345Z,19.81
2017-12-26T08:10:11.813Z,19.76
2017-12-26T08:11:20.759Z,19.74
2017-12-26T08:12:29.976Z,19.74
2017-12-26T08:13:39.182Z,19.76
2017-12-26T08:14:48.144Z,19.81
2017-12-26T08:15:57.374Z,19.83
2017-12-26T08:17:06.600Z,19.84
2017-12-26T08:18:16.110Z,19.83
2017-12-26T08:19:25.325Z,19.74
2017-12-26T08:20:34.532Z,19.81
2017-12-26T08:21:43.481Z,19.76
2017-12-26T08:22:53.246Z,19.77
2017-12-26T08:24:02.976Z,19.77
2017-12-26T08:25:12.179Z,19.76
2017-12-26T08:26:21.651Z,19.8
2017-12-26T08:27:31.156Z,19.78
2017-12-26T08:28:40.361Z,19.8
2017-12-26T08:29:49.571Z,19.77
2017-12-26T08:30:59.056Z,19.74
2017-12-26T08:32:08.333Z,19.83
2017-12-26T08:33:17.020Z,19.86
2017-12-26T08:34:26.291Z,19.8
2017-12-26T08:35:35.260Z,19.78
2017-12-26T08:36:44.204Z,19.83
2017-12-26T08:37:53.417Z,19.84
2017-12-26T08:39:02.617Z,19.76
2017-12-26T08:40:11.829Z,19.83
2017-12-26T08:41:20.792Z,19.83
2017-12-26T08:42:30.263Z,19.74
2017-12-26T08:43:39.212Z,19.86
2017-12-26T08:44:48.181Z,19.78
2017-12-26T08:45:57.659Z,19.8
2017-12-26T08:47:06.602Z,19.8
2017-12-26T08:48:15.916Z,19.8
2017-12-26T08:49:24.861Z,19.86
2017-12-26T08:50:34.100Z,19.76
2017-12-26T08:51:42.787Z,19.78
2017-12-26T08:52:51.761Z,19.77
2017-12-26T08:54:00.981Z,19.77
2017-12-26T08:55:10.190Z,19.77
2017-12-26T08:56:19.149Z,19.83
2017-12-26T08:57:28.892Z,19.86
2017-12-26T08:58:38.383Z,19.81
2017-12-26T08:59:47.087Z,19.86
2017-12-26T09:00:55.788Z,19.83
2017-12-26T09:02:05.293Z,19.77
2017-12-26T09:03:14.781Z,19.78
2017-12-26T09:04:23.993Z,19.81
2017-12-26T09:05:33.232Z,19.77
2017-12-26T09:06:42.431Z,19.77
2017-12-26T09:07:51.134Z,19.84
2017-12-26T09:09:00.092Z,19.8
2017-12-26T09:10:09.569Z,19.83
2017-12-26T09:11:18.536Z,19.84
2017-12-26T09:12:27.757Z,19.83
2017-12-26T09:13:36.967Z,19.81
2017-12-26T09:14:46.196Z,19.86
2017-12-26T09:15:54.880Z,19.86
2017-12-26T09:17:03.895Z,19.81
2017-12-26T09:18:12.811Z,19.78
2017-12-26T09:19:22.040Z,19.83
2017-12-26T09:20:31.521Z,19.77
2017-12-26T09:21:40.579Z,19.81
2017-12-26T09:22:50.069Z,19.86
2017-12-26T09:23:59.292Z,19.81
2017-12-26T09:25:08.768Z,19.81
2017-12-26T09:26:17.989Z,19.84
2017-12-26T09:27:27.474Z,19.83
2017-12-26T09:28:36.697Z,19.77
2017-12-26T09:29:45.967Z,19.77
2017-12-26T09:30:54.928Z,19.83
2017-12-26T09:32:04.230Z,19.77
2017-12-26T09:33:12.922Z,19.77
2017-12-26T09:34:22.141Z,19.86
2017-12-26T09:35:31.117Z,19.78
2017-12-26T09:36:40.338Z,19.8
2017-12-26T09:37:49.827Z,19.88
2017-12-26T09:38:59.591Z,19.87
2017-12-26T09:40:08.835Z,19.83
2017-12-26T09:41:18.063Z,19.88
2017-12-26T09:42:27.009Z,19.86
2017-12-26T09:43:36.243Z,19.87
2017-12-26T09:44:45.455Z,19.87
2017-12-26T09:45:54.931Z,19.84
2017-12-26T09:47:04.190Z,19.91
2017-12-26T09:48:12.954Z,19.96
2017-12-26T09:49:22.449Z,19.84
2017-12-26T09:50:31.666Z,19.86
2017-12-26T09:51:41.181Z,19.91
2017-12-26T09:52:50.411Z,19.83
2017-12-26T09:53:59.360Z,19.84
2017-12-26T09:55:08.049Z,19.87
2017-12-26T09:56:17.006Z,19.87
2017-12-26T09:57:25.989Z,19.88
2017-12-26T09:58:35.511Z,19.8
2017-12-26T09:59:44.767Z,19.84
2017-12-26T10:00:53.735Z,19.78
2017-12-26T10:02:02.761Z,19.8
2017-12-26T10:03:12.248Z,19.86
2017-12-26T10:04:21.476Z,19.91
2017-12-26T10:05:30.453Z,19.86
2017-12-26T10:06:39.933Z,19.88
2017-12-26T10:07:49.163Z,19.88
2017-12-26T10:08:58.395Z,19.84
2017-12-26T10:10:07.113Z,19.84
2017-12-26T10:11:16.380Z,19.83
2017-12-26T10:12:25.625Z,19.86
2017-12-26T10:13:34.339Z,19.88
2017-12-26T10:14:43.302Z,19.92
2017-12-26T10:15:52.546Z,19.83
2017-12-26T10:17:02.083Z,19.87
2017-12-26T10:18:11.570Z,19.96
2017-12-26T10:19:20.294Z,19.87
2017-12-26T10:20:29.777Z,19.81
2017-12-26T10:21:39.286Z,19.86
2017-12-26T10:22:47.971Z,19.92
2017-12-26T10:23:57.188Z,19.88
2017-12-26T10:25:06.395Z,19.91
2017-12-26T10:26:16.143Z,19.94
2017-12-26T10:27:25.366Z,19.91
2017-12-26T10:28:34.331Z,19.92
2017-12-26T10:29:43.558Z,20.01
2017-12-26T10:30:52.779Z,19.98
2017-12-26T10:32:01.754Z,19.99
2017-12-26T10:33:10.440Z,19.98
2017-12-26T10:34:19.941Z,19.99
2017-12-26T10:35:29.422Z,19.99
2017-12-26T10:36:38.669Z,19.98
2017-12-26T10:37:47.892Z,20.02
2017-12-26T10:38:56.852Z,20.05
2017-12-26T10:40:06.100Z,19.94
2017-12-26T10:41:15.327Z,19.95
2017-12-26T10:42:24.549Z,20.01
2017-12-26T10:43:33.520Z,19.96
2017-12-26T10:44:43.001Z,20.02
2017-12-26T10:45:52.221Z,20.06
2017-12-26T10:47:01.446Z,19.98
2017-12-26T10:48:10.693Z,19.99
2017-12-26T10:49:20.191Z,20.05
2017-12-26T10:50:29.695Z,20.03
2017-12-26T10:51:38.916Z,20.05
2017-12-26T10:52:48.137Z,19.98
2017-12-26T10:53:57.097Z,20.11
2017-12-26T10:55:06.588Z,20.06
2017-12-26T10:56:15.283Z,20.02
2017-12-26T10:57:24.249Z,20.02
2017-12-26T10:58:33.496Z,20.16
2017-12-26T10:59:42.761Z,20.08
2017-12-26T11:00:51.454Z,20.06
2017-12-26T11:02:00.929Z,20.14
2017-12-26T11:03:10.149Z,20.08
2017-12-26T11:04:19.380Z,20.08
2017-12-26T11:05:28.347Z,20.14
2017-12-26T11:06:37.045Z,20.1
2017-12-26T11:07:46.013Z,20.08
2017-12-26T11:08:55.523Z,20.1
2017-12-26T11:10:04.747Z,20.1
2017-12-26T11:11:14.241Z,20.18
2017-12-26T11:12:22.938Z,20.1
2017-12-26T11:13:31.892Z,20.1
2017-12-26T11:14:40.847Z,20.14
2017-12-26T11:15:50.086Z,20.1
2017-12-26T11:16:59.032Z,20.13
2017-12-26T11:18:08.255Z,20.1
2017-12-26T11:19:16.950Z,20.14
2017-12-26T11:20:25.899Z,20.1
2017-12-26T11:21:34.899Z,20.1
2017-12-26T11:22:44.385Z,20.08
2017-12-26T11:23:53.894Z,20.06
2017-12-26T11:25:03.099Z,20.21
2017-12-26T11:26:12.316Z,20.11
2017-12-26T11:27:21.028Z,20.16
2017-12-26T11:28:30.256Z,20.06
2017-12-26T11:29:38.952Z,20.2
2017-12-26T11:30:48.160Z,20.11
2017-12-26T11:31:57.106Z,20.2
2017-12-26T11:33:06.313Z,20.23
2017-12-26T11:34:14.991Z,20.2
2017-12-26T11:35:23.939Z,20.14
2017-12-26T11:36:33.411Z,20.05
2017-12-26T11:37:42.118Z,20.08
2017-12-26T11:38:51.597Z,20.16
2017-12-26T11:40:00.816Z,20.1
2017-12-26T11:41:10.029Z,20.21
2017-12-26T11:42:18.714Z,20.21
2017-12-26T11:43:28.210Z,20.13
2017-12-26T11:44:38.220Z,20.11
2017-12-26T11:45:47.188Z,20.1
2017-12-26T11:46:56.667Z,20.21
2017-12-26T11:48:05.624Z,20.23
2017-12-26T11:49:14.561Z,20.16
2017-12-26T11:50:23.527Z,20.21
2017-12-26T11:51:32.227Z,20.17
2017-12-26T11:52:40.919Z,20.13
2017-12-26T11:53:49.601Z,20.17
2017-12-26T11:54:58.544Z,20.1
2017-12-26T11:56:07.486Z,20.17
2017-12-26T11:57:16.175Z,20.21
2017-12-26T11:58:25.635Z,20.2
2017-12-26T11:59:34.576Z,20.13
2017-12-26T12:00:43.805Z,20.2
2017-12-26T12:01:53.021Z,20.16
2017-12-26T12:03:01.982Z,20.2
2017-12-26T12:04:10.944Z,20.17
2017-12-26T12:05:20.159Z,20.17
2017-12-26T12:06:29.409Z,20.11
2017-12-26T12:07:38.625Z,20.2
2017-12-26T12:08:47.581Z,20.13
2017-12-26T12:09:57.352Z,20.18
2017-12-26T12:11:07.108Z,20.13
2017-12-26T12:12:16.875Z,20.16
2017-12-26T12:13:26.379Z,20.08
2017-12-26T12:14:35.583Z,20.08
2017-12-26T12:15:44.529Z,20.14
2017-12-26T12:16:54.261Z,20.16
2017-12-26T12:18:02.939Z,20.16
2017-12-26T12:19:11.886Z,20.06
2017-12-26T12:20:21.104Z,20.1
2017-12-26T12:21:30.590Z,20.06
2017-12-26T12:22:39.807Z,20.13
2017-12-26T12:23:48.776Z,20.1
2017-12-26T12:24:57.979Z,20.18
2017-12-26T12:26:06.662Z,20.08
2017-12-26T12:27:15.668Z,20.1
2017-12-26T12:28:24.882Z,20.13
2017-12-26T12:29:34.102Z,20.14
2017-12-26T12:30:43.046Z,20.13
2017-12-26T12:31:51.986Z,20.1
2017-12-26T12:33:01.210Z,20.17
2017-12-26T12:34:10.156Z,20.11
2017-12-26T12:35:19.647Z,20.2
2017-12-26T12:36:28.599Z,20.13
2017-12-26T12:37:37.285Z,20.13
2017-12-26T12:38:46.228Z,20.11
2017-12-26T12:39:54.916Z,20.17
2017-12-26T12:41:03.671Z,20.1
2017-12-26T12:42:12.346Z,20.16
2017-12-26T12:43:21.833Z,20.13
2017-12-26T12:44:30.776Z,20.08
2017-12-26T12:45:39.990Z,20.1
2017-12-26T12:46:48.942Z,20.1
2017-12-26T12:47:57.881Z,20.13
2017-12-26T12:49:07.353Z,20.11
2017-12-26T12:50:16.577Z,20.08
2017-12-26T12:51:25.530Z,20.11
2017-12-26T12:52:34.478Z,20.06
2017-12-26T12:53:43.517Z,20.1
2017-12-26T12:54:52.724Z,20.17
2017-12-26T12:56:02.207Z,20.13
2017-12-26T12:57:11.427Z,20.13
2017-12-26T12:58:20.386Z,20.13
2017-12-26T12:59:29.410Z,20.13
2017-12-26T13:00:38.362Z,20.06
2017-12-26T13:01:47.329Z,20.11
2017-12-26T13:02:56.807Z,20.11
2017-12-26T13:04:06.016Z,20.16
2017-12-26T13:05:14.959Z,20.13
2017-12-26T13:06:23.900Z,20.16
2017-12-26T13:07:33.119Z,20.17
2017-12-26T13:08:41.862Z,20.1
2017-12-26T13:09:50.814Z,20.18
2017-12-26T13:10:59.757Z,20.1
2017-12-26T13:12:08.966Z,20.13
2017-12-26T13:13:17.902Z,20.08
2017-12-26T13:14:26.578Z,20.06
2017-12-26T13:15:35.259Z,20.21
2017-12-26T13:16:43.949Z,20.23
2017-12-26T13:17:53.422Z,20.2
2017-12-26T13:19:02.638Z,20.21
2017-12-26T13:20:11.863Z,20.1
2017-12-26T13:21:21.073Z,20.11
2017-12-26T13:22:30.544Z,20.11
2017-12-26T13:23:39.488Z,20.08
2017-12-26T13:24:48.954Z,20.16
2017-12-26T13:25:58.160Z,20.06
2017-12-26T13:27:07.134Z,20.18
2017-12-26T13:28:16.653Z,20.17
2017-12-26T13:29:25.867Z,20.08
2017-12-26T13:30:35.073Z,20.21
2017-12-26T13:31:44.017Z,20.1
2017-12-26T13:32:53.765Z,20.1
2017-12-26T13:34:02.722Z,20.2
2017-12-26T13:35:11.963Z,20.16
2017-12-26T13:36:21.435Z,20.11
2017-12-26T13:37:30.927Z,20.11
2017-12-26T13:38:40.398Z,20.1
2017-12-26T13:39:49.609Z,20.11
2017-12-26T13:40:58.821Z,20.16
2017-12-26T13:42:08.310Z,20.1
2017-12-26T13:43:17.506Z,20.1
2017-12-26T13:44:26.765Z,20.1
2017-12-26T13:45:36.233Z,20.16
2017-12-26T13:46:45.442Z,20.17
2017-12-26T13:47:54.929Z,20.16
2017-12-26T13:49:03.876Z,20.1
2017-12-26T13:50:13.612Z,20.05
2017-12-26T13:51:23.091Z,20.11
2017-12-26T13:52:32.045Z,20.13
2017-12-26T13:53:41.267Z,20.08
2017-12-26T13:54:49.968Z,20.08
2017-12-26T13:55:59.186Z,20.1
2017-12-26T13:57:08.121Z,20.14
2017-12-26T13:58:17.354Z,20.06
2017-12-26T13:59:26.300Z,20.11
2017-12-26T14:00:34.979Z,20.06
2017-12-26T14:01:44.195Z,20.11
2017-12-26T14:02:53.937Z,20.17
2017-12-26T14:04:03.152Z,20.06
2017-12-26T14:05:12.102Z,20.11
2017-12-26T14:06:20.788Z,20.08
2017-12-26T14:07:30.256Z,20.08
2017-12-26T14:08:39.207Z,20.13
2017-12-26T14:09:48.427Z,20.08
2017-12-26T14:10:57.389Z,20.05
2017-12-26T14:12:06.604Z,20.06
2017-12-26T14:13:15.289Z,20.1
2017-12-26T14:14:24.518Z,20.1
2017-12-26T14:15:33.744Z,20.08
2017-12-26T14:16:42.957Z,20.1
2017-12-26T14:17:52.693Z,20.1
2017-12-26T14:19:01.667Z,20.06
2017-12-26T14:20:10.617Z,20.08
2017-12-26T14:21:19.833Z,20.08
2017-12-26T14:22:28.769Z,20.03
2017-12-26T14:23:37.452Z,20.06
2017-12-26T14:24:46.393Z,20.01
2017-12-26T14:25:55.353Z,20.06
2017-12-26T14:27:04.576Z,20.05
2017-12-26T14:28:13.548Z,20.11
2017-12-26T14:29:22.233Z,20.06
2017-12-26T14:30:31.187Z,20.11
2017-12-26T14:31:40.126Z,20.08
2017-12-26T14:32:49.607Z,20.05
2017-12-26T14:33:59.617Z,20.1
2017-12-26T14:35:08.586Z,19.99
2017-12-26T14:36:17.772Z,20.11
2017-12-26T14:37:26.451Z,20.11
2017-12-26T14:38:35.706Z,20.11
2017-12-26T14:39:44.689Z,20.13
2017-12-26T14:40:53.606Z,20.02
2017-12-26T14:42:02.830Z,19.99
2017-12-26T14:43:12.038Z,20.1
2017-12-26T14:44:20.984Z,20.03
2017-12-26T14:45:30.267Z,19.98
2017-12-26T14:46:39.998Z,20.05
2017-12-26T14:47:48.694Z,20.03
2017-12-26T14:48:58.153Z,20.01
2017-12-26T14:50:07.098Z,19.96
2017-12-26T14:51:16.305Z,20.01
2017-12-26T14:52:25.254Z,19.99